Terminal Aerodrome Forecast
Issued by NWS

Home | Current Version | Previous Version | Text Only | Print | Product List | Glossary On
Versions: 1 2 3 4 5 6 7 8 9 10 11 12 13 14
000
FTUS42 KMLB 220500
TAFTIX
TAF
KTIX 220540Z 2206/2306 VRB03KT P6SM SCT050 BKN250
     FM221500 07004KT P6SM SCT025 BKN250
     FM221800 09007KT P6SM VCTS SCT035CB SCT100 BKN250 PROB30
      2218/2221 3SM TSRA BKN025CB
     FM230100 15004KT P6SM SCT050 BKN150
      AMD NOT SKED TIL 221100=

USA.gov is the U.S. government's official web portal to all federal, state and local government web resources and services.